createdAt,value
2023-03-15T00:00:57.454Z,10.47
2023-03-15T00:03:26.982Z,11.33
2023-03-15T00:05:55.041Z,8.30
2023-03-15T00:08:23.059Z,7.77
2023-03-15T00:10:51.143Z,7.17
2023-03-15T00:13:19.192Z,7.07
2023-03-15T00:15:48.831Z,10.63
2023-03-15T00:18:18.193Z,7.77
2023-03-15T00:20:48.356Z,7.60
2023-03-15T00:23:17.342Z,9.40
2023-03-15T00:25:46.306Z,10.17
2023-03-15T00:28:15.054Z,8.23
2023-03-15T00:30:43.713Z,11.77
2023-03-15T00:33:14.203Z,10.20
2023-03-15T00:35:44.966Z,10.90
2023-03-15T00:38:14.828Z,11.57
2023-03-15T00:40:43.544Z,11.23
2023-03-15T00:43:11.553Z,9.77
2023-03-15T00:45:39.909Z,8.90
2023-03-15T00:48:08.030Z,8.83
2023-03-15T00:50:36.321Z,11.03
2023-03-15T00:53:04.406Z,7.33
2023-03-15T00:55:33.795Z,11.97
2023-03-15T00:58:01.842Z,10.87
2023-03-15T01:00:30.100Z,11.80
2023-03-15T01:02:58.282Z,13.57
2023-03-15T01:05:26.986Z,12.73
2023-03-15T01:07:55.104Z,11.27
2023-03-15T01:10:23.235Z,13.47
2023-03-15T01:12:52.629Z,15.07
2023-03-15T01:15:20.797Z,9.70
2023-03-15T01:17:48.870Z,10.07
2023-03-15T01:20:17.317Z,10.53
2023-03-15T01:22:45.434Z,12.27
2023-03-15T01:25:15.573Z,11.23
2023-03-15T01:27:43.646Z,8.90
2023-03-15T01:30:13.936Z,10.27
2023-03-15T01:32:42.061Z,10.53
2023-03-15T01:35:10.541Z,10.53
2023-03-15T01:37:38.716Z,13.27
2023-03-15T01:40:09.660Z,9.93
2023-03-15T01:42:52.970Z,13.63
2023-03-15T01:46:02.750Z,13.33
2023-03-15T01:48:38.029Z,8.07
2023-03-15T01:51:12.575Z,13.53
2023-03-15T01:53:43.497Z,10.23
2023-03-15T01:56:12.459Z,8.90
2023-03-15T01:58:44.723Z,12.40
2023-03-15T02:01:16.237Z,10.67
2023-03-15T02:03:51.781Z,11.43
2023-03-15T02:06:23.290Z,14.00
2023-03-15T02:09:01.075Z,13.63
2023-03-15T02:11:35.836Z,12.53
2023-03-15T02:14:07.106Z,15.83
2023-03-15T02:16:42.105Z,13.10
2023-03-15T02:19:26.753Z,3.77
2023-03-15T02:22:02.508Z,13.90
2023-03-15T02:24:39.125Z,6.43
2023-03-15T02:27:07.950Z,5.53
2023-03-15T02:29:37.517Z,9.63
2023-03-15T02:32:06.074Z,9.37
2023-03-15T02:34:34.151Z,8.33
2023-03-15T02:37:04.395Z,5.93
2023-03-15T02:39:32.414Z,11.07
2023-03-15T02:42:01.968Z,5.40
2023-03-15T02:44:33.737Z,11.33
2023-03-15T02:47:07.390Z,5.83
2023-03-15T02:49:40.728Z,5.67
2023-03-15T02:52:10.156Z,7.03
2023-03-15T02:54:39.386Z,8.00
2023-03-15T02:57:09.633Z,4.77
2023-03-15T02:59:38.000Z,8.90
2023-03-15T03:02:07.964Z,7.07
2023-03-15T03:04:36.082Z,12.03
2023-03-15T03:07:04.227Z,9.83
2023-03-15T03:09:39.988Z,9.83
2023-03-15T03:12:09.073Z,10.47
2023-03-15T03:14:37.178Z,5.77
2023-03-15T03:17:10.697Z,9.20
2023-03-15T03:19:40.162Z,13.33
2023-03-15T03:22:08.490Z,5.13
2023-03-15T03:24:36.597Z,9.20
2023-03-15T03:27:05.006Z,12.40
2023-03-15T03:29:36.442Z,5.47
2023-03-15T03:32:06.566Z,6.93
2023-03-15T03:34:36.106Z,7.57
2023-03-15T03:37:04.615Z,6.33
2023-03-15T03:39:49.702Z,11.77
2023-03-15T03:42:18.022Z,9.10
2023-03-15T03:44:46.109Z,7.00
2023-03-15T03:47:14.532Z,12.07
2023-03-15T03:49:43.920Z,6.50
2023-03-15T03:52:12.106Z,11.13
2023-03-15T03:54:40.143Z,11.20
2023-03-15T03:57:09.134Z,6.00
2023-03-15T03:59:37.538Z,11.23
2023-03-15T04:02:06.919Z,10.70
2023-03-15T04:04:36.298Z,11.70
2023-03-15T04:07:07.571Z,8.07
2023-03-15T04:09:38.330Z,9.07
2023-03-15T04:12:07.652Z,14.33
2023-03-15T04:14:37.760Z,7.30
2023-03-15T04:17:09.521Z,9.27
2023-03-15T04:19:38.748Z,10.23
2023-03-15T04:22:10.384Z,10.60
2023-03-15T04:24:56.813Z,12.40
2023-03-15T04:27:43.659Z,17.30
2023-03-15T04:30:31.395Z,22.27
2023-03-15T04:33:16.076Z,12.33
2023-03-15T04:36:07.146Z,18.37
2023-03-15T04:38:48.675Z,13.87
2023-03-15T04:41:36.588Z,12.10
2023-03-15T04:44:27.855Z,13.13
2023-03-15T04:47:22.750Z,15.20
2023-03-15T04:50:01.697Z,13.83
2023-03-15T04:52:52.727Z,10.73
2023-03-15T04:55:42.435Z,11.57
2023-03-15T04:58:36.628Z,8.80
2023-03-15T05:01:17.960Z,9.40
2023-03-15T05:04:12.012Z,12.57
2023-03-15T05:07:15.491Z,7.47
2023-03-15T05:10:06.732Z,6.50
2023-03-15T05:12:36.210Z,7.90
2023-03-15T05:15:22.801Z,8.13
2023-03-15T05:17:55.222Z,6.23
2023-03-15T05:20:29.436Z,5.37
2023-03-15T05:23:11.790Z,5.87
2023-03-15T05:25:58.146Z,5.97
2023-03-15T05:28:52.489Z,7.97
2023-03-15T05:31:20.991Z,6.20
2023-03-15T05:33:55.092Z,7.47
2023-03-15T05:36:46.495Z,12.83
2023-03-15T05:39:34.736Z,9.70
2023-03-15T05:42:11.668Z,8.73
2023-03-15T05:45:11.420Z,7.90
2023-03-15T05:47:57.674Z,9.20
2023-03-15T05:50:34.991Z,11.47
2023-03-15T05:53:22.609Z,10.03
2023-03-15T05:56:10.951Z,8.60
2023-03-15T05:58:57.348Z,6.53
2023-03-15T06:01:39.226Z,11.27
2023-03-15T06:04:15.311Z,6.03
2023-03-15T06:06:43.498Z,12.70
2023-03-15T06:09:12.928Z,9.03
2023-03-15T06:11:41.097Z,8.23
2023-03-15T06:14:12.933Z,7.97
2023-03-15T06:16:57.733Z,8.53
2023-03-15T06:19:27.372Z,4.93
2023-03-15T06:21:56.371Z,4.00
2023-03-15T06:24:31.329Z,7.63
2023-03-15T06:26:59.533Z,8.73
2023-03-15T06:29:27.799Z,7.50
2023-03-15T06:31:59.412Z,14.00
2023-03-15T06:34:28.811Z,9.07
2023-03-15T06:36:57.094Z,8.80
2023-03-15T06:39:25.177Z,10.53
2023-03-15T06:41:57.365Z,7.67
2023-03-15T06:44:27.262Z,10.43
2023-03-15T06:47:00.673Z,9.57
2023-03-15T06:49:28.821Z,6.07
2023-03-15T06:51:57.226Z,8.50
2023-03-15T06:54:25.597Z,7.43
2023-03-15T06:56:53.779Z,9.30
2023-03-15T06:59:21.825Z,8.77
2023-03-15T07:01:50.121Z,7.97
2023-03-15T07:04:19.662Z,9.20
2023-03-15T07:06:47.770Z,17.50
2023-03-15T07:09:15.777Z,14.67
2023-03-15T07:11:44.075Z,11.97
2023-03-15T07:14:12.197Z,9.57
2023-03-15T07:16:40.284Z,11.83
2023-03-15T07:19:08.371Z,13.53
2023-03-15T07:21:37.829Z,11.27
2023-03-15T07:24:06.368Z,10.53
2023-03-15T07:26:34.469Z,11.90
2023-03-15T07:29:02.556Z,7.60
2023-03-15T07:31:30.541Z,6.73
2023-03-15T07:33:58.631Z,8.10
2023-03-15T07:36:26.755Z,11.57
2023-03-15T07:38:56.148Z,13.50
2023-03-15T07:41:24.197Z,9.97
2023-03-15T07:44:07.445Z,9.40
2023-03-15T07:46:35.609Z,8.00
2023-03-15T07:49:03.703Z,10.80
2023-03-15T07:51:32.170Z,13.63
2023-03-15T07:54:01.593Z,8.80
2023-03-15T07:56:29.698Z,9.90
2023-03-15T07:58:57.747Z,11.33
2023-03-15T08:01:25.727Z,13.00
2023-03-15T08:03:53.758Z,8.50
2023-03-15T08:06:21.846Z,10.03
2023-03-15T08:08:49.838Z,14.50
2023-03-15T08:11:19.504Z,16.07
2023-03-15T08:13:47.959Z,12.40
2023-03-15T08:16:16.072Z,9.63
2023-03-15T08:18:44.199Z,18.87
2023-03-15T08:21:12.188Z,9.53
2023-03-15T08:23:40.596Z,11.23
2023-03-15T08:26:08.735Z,8.67
2023-03-15T08:28:38.111Z,16.25
2023-03-15T08:31:08.797Z,9.67
2023-03-15T08:33:36.965Z,10.73
2023-03-15T08:36:05.309Z,11.88
2023-03-15T08:38:33.364Z,13.07
2023-03-15T08:41:01.480Z,16.33
2023-03-15T08:43:29.516Z,10.73
2023-03-15T08:46:01.721Z,13.75
2023-03-15T08:48:30.261Z,13.75
2023-03-15T08:51:02.378Z,13.75
2023-03-15T08:53:30.624Z,10.20
2023-03-15T08:55:58.993Z,12.07
2023-03-15T08:58:27.036Z,15.65
2023-03-15T09:00:55.026Z,14.85
2023-03-15T09:03:24.450Z,12.38
2023-03-15T09:05:57.400Z,11.50
2023-03-15T09:08:26.294Z,16.02
2023-03-15T09:10:55.846Z,15.88
2023-03-15T09:13:24.282Z,13.75
2023-03-15T09:15:52.751Z,9.98
2023-03-15T09:18:21.491Z,9.13
2023-03-15T09:20:50.990Z,16.88
2023-03-15T09:23:19.027Z,12.93
2023-03-15T09:25:47.109Z,12.30
2023-03-15T09:28:15.170Z,16.67
2023-03-15T09:30:43.993Z,15.18
2023-03-15T09:33:14.674Z,12.43
2023-03-15T09:35:43.073Z,14.38
2023-03-15T09:38:12.818Z,14.52
2023-03-15T09:40:45.041Z,13.50
2023-03-15T09:43:38.968Z,10.10
2023-03-15T09:46:18.145Z,6.95
2023-03-15T09:48:53.416Z,8.35
2023-03-15T09:51:37.228Z,6.45
2023-03-15T09:54:12.264Z,3.80
2023-03-15T09:56:45.661Z,8.90
2023-03-15T09:59:16.387Z,3.75
2023-03-15T10:01:45.295Z,8.60
2023-03-15T10:04:20.156Z,7.18
2023-03-15T10:06:54.777Z,9.52
2023-03-15T10:09:26.763Z,4.75
2023-03-15T10:12:03.795Z,10.90
2023-03-15T10:14:44.759Z,5.28
2023-03-15T10:17:14.562Z,5.03
2023-03-15T10:19:51.075Z,9.13
2023-03-15T10:22:25.845Z,9.43
2023-03-15T10:25:00.757Z,7.93
2023-03-15T10:27:35.886Z,10.15
2023-03-15T10:30:14.216Z,6.88
2023-03-15T10:32:45.976Z,10.25
2023-03-15T10:35:16.627Z,7.63
2023-03-15T10:37:45.086Z,13.18
2023-03-15T10:40:16.706Z,9.35
2023-03-15T10:42:46.286Z,8.23
2023-03-15T10:45:21.857Z,11.05
2023-03-15T10:47:59.605Z,10.35
2023-03-15T10:50:30.299Z,12.13
2023-03-15T10:52:59.695Z,8.52
2023-03-15T10:55:34.816Z,6.55
2023-03-15T10:58:20.164Z,7.93
2023-03-15T11:00:51.806Z,7.47
2023-03-15T11:03:21.694Z,7.00
2023-03-15T11:05:52.020Z,9.27
2023-03-15T11:08:22.101Z,7.53
2023-03-15T11:10:57.604Z,7.63
2023-03-15T11:13:27.214Z,9.80
2023-03-15T11:16:03.859Z,9.05
2023-03-15T11:18:37.041Z,8.85
2023-03-15T11:21:09.869Z,12.95
2023-03-15T11:23:40.320Z,6.72
2023-03-15T11:26:29.451Z,10.70
2023-03-15T11:29:02.540Z,11.63
2023-03-15T11:31:32.282Z,9.60
2023-03-15T11:34:04.491Z,12.85
2023-03-15T11:36:35.899Z,15.68
2023-03-15T11:39:05.789Z,12.35
2023-03-15T11:41:41.073Z,8.70
2023-03-15T11:44:18.053Z,9.35
2023-03-15T11:46:51.124Z,14.50
2023-03-15T11:49:24.968Z,13.10
2023-03-15T11:51:56.844Z,11.55
2023-03-15T11:54:27.769Z,14.25
2023-03-15T11:56:59.183Z,9.75
2023-03-15T11:59:29.875Z,9.00
2023-03-15T12:02:00.458Z,12.35
2023-03-15T12:04:45.101Z,7.80
2023-03-15T12:07:57.526Z,10.23
2023-03-15T12:10:46.520Z,13.07
2023-03-15T12:13:26.641Z,10.35
2023-03-15T12:15:55.797Z,11.93
2023-03-15T12:18:32.394Z,10.52
2023-03-15T12:21:16.339Z,9.20
2023-03-15T12:23:57.940Z,10.48
2023-03-15T12:26:32.184Z,13.02
2023-03-15T12:29:23.451Z,11.30
2023-03-15T12:31:55.640Z,12.48
2023-03-15T12:34:37.330Z,10.48
2023-03-15T12:37:09.856Z,6.78
2023-03-15T12:39:45.935Z,11.05
2023-03-15T12:42:36.196Z,11.63
2023-03-15T12:45:37.684Z,7.90
2023-03-15T12:48:25.896Z,10.68
2023-03-15T12:50:59.974Z,8.13
2023-03-15T12:53:49.046Z,5.10
2023-03-15T12:56:32.829Z,11.93
2023-03-15T12:59:07.120Z,11.32
2023-03-15T13:01:36.956Z,11.45
2023-03-15T13:04:05.629Z,14.07
2023-03-15T13:06:46.464Z,11.10
2023-03-15T13:09:27.323Z,9.10
2023-03-15T13:12:02.444Z,10.82
2023-03-15T13:14:43.111Z,8.63
2023-03-15T13:17:28.206Z,10.95
2023-03-15T13:20:18.938Z,8.65
2023-03-15T13:22:56.003Z,13.25
2023-03-15T13:25:31.833Z,11.23
2023-03-15T13:28:04.072Z,12.18
2023-03-15T13:30:35.708Z,9.55
2023-03-15T13:33:21.614Z,7.85
2023-03-15T13:35:56.412Z,8.35
2023-03-15T13:38:31.514Z,12.82
2023-03-15T13:41:01.964Z,13.10
2023-03-15T13:43:33.206Z,10.38
2023-03-15T13:46:02.301Z,11.48
2023-03-15T13:48:34.220Z,10.07
2023-03-15T13:51:06.274Z,9.90
2023-03-15T13:53:49.180Z,10.52
2023-03-15T13:56:21.214Z,7.35
2023-03-15T13:58:52.074Z,8.95
2023-03-15T14:01:23.225Z,8.40
2023-03-15T14:03:58.258Z,10.75
2023-03-15T14:06:28.248Z,11.15
2023-03-15T14:09:01.991Z,6.47
2023-03-15T14:11:37.481Z,11.38
2023-03-15T14:14:23.262Z,9.50
2023-03-15T14:17:04.231Z,12.00
2023-03-15T14:19:37.020Z,6.53
2023-03-15T14:22:15.567Z,8.00
2023-03-15T14:24:46.050Z,8.55
2023-03-15T14:27:18.416Z,6.45
2023-03-15T14:29:49.802Z,9.30
2023-03-15T14:32:30.898Z,7.15
2023-03-15T14:35:08.085Z,8.68
2023-03-15T14:37:42.040Z,8.77
2023-03-15T14:40:18.369Z,8.85
2023-03-15T14:42:50.496Z,8.35
2023-03-15T14:45:22.173Z,9.63
2023-03-15T14:47:57.249Z,8.68
2023-03-15T14:50:29.342Z,12.43
2023-03-15T14:52:59.502Z,10.45
2023-03-15T14:55:33.536Z,10.27
2023-03-15T14:58:02.210Z,10.88
2023-03-15T15:00:31.271Z,7.97
2023-03-15T15:03:00.118Z,9.40
2023-03-15T15:05:31.889Z,7.75
2023-03-15T15:08:05.426Z,9.10
2023-03-15T15:10:34.976Z,9.40
2023-03-15T15:13:06.869Z,10.88
2023-03-15T15:15:51.769Z,8.25
2023-03-15T15:18:23.750Z,8.15
2023-03-15T15:20:56.126Z,8.07
2023-03-15T15:23:27.287Z,10.07
2023-03-15T15:25:59.205Z,10.10
2023-03-15T15:28:35.349Z,5.20
2023-03-15T15:31:08.199Z,7.25
2023-03-15T15:33:36.741Z,7.55
2023-03-15T15:36:12.422Z,10.13
2023-03-15T15:38:41.253Z,7.38
2023-03-15T15:41:17.128Z,7.15
2023-03-15T15:43:45.396Z,6.68
2023-03-15T15:46:13.908Z,8.98
2023-03-15T15:48:42.764Z,11.10
2023-03-15T15:51:22.860Z,9.95
2023-03-15T15:53:51.871Z,11.68
2023-03-15T15:56:20.305Z,6.90
2023-03-15T15:58:49.982Z,9.75
2023-03-15T16:01:18.270Z,8.95
2023-03-15T16:03:46.579Z,8.50
2023-03-15T16:06:21.784Z,7.97
2023-03-15T16:08:53.692Z,9.02
2023-03-15T16:11:22.772Z,6.60
2023-03-15T16:13:54.041Z,8.80
2023-03-15T16:16:22.837Z,9.90
2023-03-15T16:18:51.246Z,10.48
2023-03-15T16:21:28.937Z,10.23
2023-03-15T16:24:00.611Z,8.88
2023-03-15T16:26:29.240Z,6.93
2023-03-15T16:28:57.516Z,9.55
2023-03-15T16:31:25.976Z,4.88
2023-03-15T16:33:54.270Z,6.72
2023-03-15T16:36:25.396Z,4.97
2023-03-15T16:38:53.678Z,7.45
2023-03-15T16:41:22.014Z,8.15
2023-03-15T16:43:50.278Z,9.35
2023-03-15T16:46:19.075Z,8.93
2023-03-15T16:48:47.449Z,9.00
2023-03-15T16:51:17.379Z,10.00
2023-03-15T16:53:47.084Z,8.20
2023-03-15T16:56:16.483Z,11.95
2023-03-15T16:58:45.922Z,7.70
2023-03-15T17:01:14.183Z,9.10
2023-03-15T17:03:42.856Z,10.05
2023-03-15T17:06:20.245Z,10.52
2023-03-15T17:08:50.851Z,15.35
2023-03-15T17:11:19.618Z,9.70
2023-03-15T17:13:48.423Z,8.50
2023-03-15T17:16:17.131Z,9.88
2023-03-15T17:18:47.744Z,8.20
2023-03-15T17:21:19.778Z,11.20
2023-03-15T17:23:50.706Z,7.25
2023-03-15T17:26:21.019Z,6.53
2023-03-15T17:28:51.010Z,6.65
2023-03-15T17:31:25.560Z,7.30
2023-03-15T17:33:54.590Z,9.55
2023-03-15T17:36:24.931Z,10.40
2023-03-15T17:38:55.241Z,13.02
2023-03-15T17:41:26.107Z,14.35
2023-03-15T17:43:54.847Z,17.00
2023-03-15T17:46:29.947Z,8.80
2023-03-15T17:48:59.371Z,7.82
2023-03-15T17:51:30.329Z,11.27
2023-03-15T17:54:00.751Z,9.38
2023-03-15T17:56:30.113Z,8.43
2023-03-15T17:58:58.884Z,10.57
2023-03-15T18:01:29.182Z,7.07
2023-03-15T18:03:58.520Z,12.75
2023-03-15T18:06:26.922Z,11.73
2023-03-15T18:08:55.228Z,9.18
2023-03-15T18:11:28.460Z,8.00
2023-03-15T18:13:57.222Z,10.80
2023-03-15T18:16:25.842Z,9.95
2023-03-15T18:18:54.178Z,7.15
2023-03-15T18:21:24.450Z,10.75
2023-03-15T18:23:53.149Z,9.30
2023-03-15T18:26:22.890Z,8.60
2023-03-15T18:28:52.931Z,9.55
2023-03-15T18:31:52.846Z,11.10
2023-03-15T18:34:22.005Z,12.27
2023-03-15T18:36:50.142Z,15.20
2023-03-15T18:39:18.658Z,13.77
2023-03-15T18:41:46.878Z,12.33
2023-03-15T18:44:16.283Z,11.20
2023-03-15T18:46:48.054Z,10.27
2023-03-15T18:49:16.138Z,12.80
2023-03-15T18:51:44.284Z,10.07
2023-03-15T18:54:12.347Z,8.97
2023-03-15T18:56:40.457Z,10.90
2023-03-15T18:59:08.822Z,10.60
2023-03-15T19:01:38.424Z,14.67
2023-03-15T19:04:06.623Z,13.13
2023-03-15T19:06:34.964Z,13.17
2023-03-15T19:09:03.039Z,15.43
2023-03-15T19:11:31.745Z,13.67
2023-03-15T19:13:59.987Z,14.20
2023-03-15T19:16:30.568Z,15.17
2023-03-15T19:19:00.124Z,12.03
2023-03-15T19:21:28.446Z,18.30
2023-03-15T19:23:58.158Z,17.70
2023-03-15T19:26:26.627Z,14.50
2023-03-15T19:28:56.219Z,16.47
2023-03-15T19:31:24.508Z,16.73
2023-03-15T19:33:52.694Z,14.40
2023-03-15T19:36:24.066Z,16.00
2023-03-15T19:38:52.153Z,18.17
2023-03-15T19:41:20.207Z,17.37
2023-03-15T19:43:48.219Z,16.73
2023-03-15T19:46:17.356Z,18.47
2023-03-15T19:48:45.452Z,20.73
2023-03-15T19:51:13.494Z,20.47
2023-03-15T19:53:42.952Z,24.93
2023-03-15T19:56:11.582Z,23.43
2023-03-15T19:58:39.629Z,19.43
2023-03-15T20:01:07.726Z,20.60
2023-03-15T20:03:35.830Z,18.77
2023-03-15T20:06:08.991Z,17.83
2023-03-15T20:08:37.120Z,16.63
2023-03-15T20:11:07.769Z,13.90
2023-03-15T20:13:36.911Z,22.80
2023-03-15T20:16:05.843Z,18.40
2023-03-15T20:18:33.981Z,15.93
2023-03-15T20:21:02.069Z,18.70
2023-03-15T20:23:30.117Z,16.90
2023-03-15T20:26:09.829Z,18.30
2023-03-15T20:28:38.498Z,19.13
2023-03-15T20:31:08.534Z,16.37
2023-03-15T20:33:36.900Z,24.00
2023-03-15T20:36:05.880Z,18.27
2023-03-15T20:38:34.700Z,23.37
2023-03-15T20:41:02.747Z,21.27
2023-03-15T20:43:32.957Z,21.40
2023-03-15T20:46:03.103Z,24.97
2023-03-15T20:48:33.163Z,25.87
2023-03-15T20:51:03.779Z,25.43
2023-03-15T20:53:33.168Z,29.57
2023-03-15T20:56:01.751Z,27.57
2023-03-15T20:58:29.895Z,28.07
2023-03-15T21:01:05.629Z,27.43
2023-03-15T21:03:35.342Z,23.03
2023-03-15T21:06:04.519Z,23.40
2023-03-15T21:08:33.266Z,20.23
2023-03-15T21:11:01.538Z,21.37
2023-03-15T21:13:29.707Z,22.17
2023-03-15T21:15:58.032Z,23.80
2023-03-15T21:18:27.522Z,22.63
2023-03-15T21:21:00.376Z,18.27
2023-03-15T21:23:31.220Z,21.43
2023-03-15T21:26:00.282Z,19.70
2023-03-15T21:28:28.933Z,17.77
2023-03-15T21:30:57.230Z,17.90
2023-03-15T21:33:28.896Z,16.87
2023-03-15T21:35:58.955Z,18.30
2023-03-15T21:38:27.799Z,14.97
2023-03-15T21:40:59.316Z,14.10
2023-03-15T21:43:28.112Z,16.83
2023-03-15T21:45:56.308Z,16.83
2023-03-15T21:48:24.634Z,17.43
2023-03-15T21:50:54.331Z,22.27
2023-03-15T21:53:22.861Z,17.00
2023-03-15T21:55:50.926Z,20.97
2023-03-15T21:58:19.091Z,17.33
2023-03-15T22:00:47.091Z,20.43
2023-03-15T22:03:17.842Z,21.73
2023-03-15T22:05:46.809Z,18.87
2023-03-15T22:08:16.281Z,17.80
2023-03-15T22:10:44.304Z,17.90
2023-03-15T22:13:12.392Z,14.97
2023-03-15T22:15:40.416Z,18.23
2023-03-15T22:18:08.576Z,16.73
2023-03-15T22:20:36.648Z,15.77
2023-03-15T22:23:04.986Z,18.80
2023-03-15T22:25:34.784Z,17.63
2023-03-15T22:28:02.933Z,16.10
2023-03-15T22:30:31.455Z,18.27
2023-03-15T22:32:59.769Z,14.00
2023-03-15T22:35:28.011Z,17.47
2023-03-15T22:37:57.074Z,14.47
2023-03-15T22:40:26.398Z,17.87
2023-03-15T22:42:57.496Z,15.00
2023-03-15T22:45:26.087Z,13.73
2023-03-15T22:47:54.151Z,13.53
2023-03-15T22:50:22.232Z,15.33
2023-03-15T22:52:51.824Z,14.67
2023-03-15T22:55:20.707Z,13.73
2023-03-15T22:57:48.922Z,14.53
2023-03-15T23:00:23.190Z,13.70
2023-03-15T23:02:51.852Z,14.27
2023-03-15T23:05:21.236Z,17.57
2023-03-15T23:07:49.264Z,13.83
2023-03-15T23:10:17.519Z,12.60
2023-03-15T23:12:46.041Z,15.30
2023-03-15T23:15:14.804Z,16.63
2023-03-15T23:17:46.482Z,13.27
2023-03-15T23:20:15.764Z,17.87
2023-03-15T23:22:44.479Z,12.90
2023-03-15T23:25:14.181Z,11.97
2023-03-15T23:27:42.637Z,12.47
2023-03-15T23:30:11.781Z,13.80
2023-03-15T23:32:40.088Z,11.60
2023-03-15T23:35:12.611Z,11.70
2023-03-15T23:37:41.041Z,11.07
2023-03-15T23:40:15.224Z,12.80
2023-03-15T23:42:43.942Z,10.53
2023-03-15T23:45:13.315Z,11.67
2023-03-15T23:47:41.496Z,7.73
2023-03-15T23:50:13.718Z,11.13
2023-03-15T23:52:42.314Z,11.23
2023-03-15T23:55:11.493Z,11.73
2023-03-15T23:57:39.607Z,17.43
